Detall de PIREP

Printer-friendly versionPDF version

[2014/10/15 09:38:00]
Flight IATA:CT3230
Pilot Number:042
Company ICAO:CAT
Aircraft Type:B463/A
PAX:36
Aircraft Registration:PAX
Departing Airport: LEPA
Destination Airport: ELLX
Alternate Airport:EDDK
Online: VATSIM
Route:MEROS UN853 UBIMA/N0462F360 UN853 MOLUS/N0458F300 UN853 IXILU UL47 GIVOR UN853 SORAL V36 AKELU
Flight Level:F340
No Slew and time accel
No pause
Crash detect
Detect pilot in Cockpit between each 30 and 45 minutes
09:38 Zero fuel Weight: 80444 Lbs, Fuel Weight: 22755 Lbs
09:38 VATSIM:LEPA 150830Z 00000KT 9999 FEW018 20/16 Q1011 NOSIG
09:38 VATSIM:ELLX 150820Z VRB01KT 8000 FEW001 11/10 Q1009 NOSIG
09:51 Parking Brakes off
09:54 Take-off
09:54 Take off Weight: 102493 Lbs
09:54 Wind: 313º @ 000 Knots Heading: 058º
09:54 POS N39º 33´ 01´´ E002º 45´ 04´´
09:54 Flaps:2 at 155 Knots
09:54 Gear Up: 154 Knots
09:55 Flaps:1 at 126 Knots
09:56 Flaps:0 at 191 Knots
10:09 Wind:338º@028 Knots Heading: 045º Ground Speed: 357 Knots Altitude 27424 ft
10:15 TOC
10:15 Fuel Weight: 18965 Lb
10:24 Wind:355º@048 Knots Heading: 008º Ground Speed: 362 Knots Altitude 33900 ft
10:39 Wind:323º@053 Knots Heading: 026º Ground Speed: 386 Knots Altitude 33871 ft
10:54 Wind:304º@059 Knots Heading: 018º Ground Speed: 397 Knots Altitude 33887 ft
11:09 Wind:304º@059 Knots Heading: 350º Ground Speed: 370 Knots Altitude 33904 ft
11:24 Wind:295º@074 Knots Heading: 333º Ground Speed: 352 Knots Altitude 33894 ft
11:34 TOD
11:34 Fuel Weight: 13859 Lb
11:39 Wind:282º@048 Knots Heading: 354º Ground Speed: 311 Knots Altitude 25190 ft
11:51 Flaps:1 at 230 Knots
11:53 Flaps:2 at 166 Knots
11:54 Wind:231º@007 Knots Heading: 238º Ground Speed: 165 Knots Altitude 3385 ft
11:54 Flaps:3 at 172 Knots
11:54 Flaps:4 at 173 Knots
11:54 Gear Down: 169 Knots
11:55 Flaps:3 at 114 Knots
11:57 TouchDown:Rate -206 ft/min Speed: 135 Knots
11:57 VATSIM:ELLX 151050Z 20006KT 170V240 9999 FEW018 15/09 Q1008 NOSIG
11:57 Land
11:57 Wind:220º@005 Knots
11:57 Heading: 239º
11:57 Flight Duration: 02:03
11:57 Landing Weight: 93513 Lbs
11:57 POS N49º 37´ 27´´ E006º 12´ 18´´
12:00 Parking brakes on
12:00 Block to Block Duration: 02:09
12:00 Final Fuel: 12687 Lbls
12:00 Spent Fuel: 10068 Lbls
12:00 Flight Length: 702 NM
12:00 TOD Land Length: 103 NM

Exportar CSV

Powered by Drupal - Modified by Danger4k